createdAt,value
2023-04-13T00:01:23.191Z,1.00
2023-04-13T00:03:49.981Z,0.50
2023-04-13T00:06:16.708Z,0.63
2023-04-13T00:08:44.063Z,0.63
2023-04-13T00:11:11.619Z,0.60
2023-04-13T00:13:42.896Z,0.50
2023-04-13T00:16:11.015Z,0.50
2023-04-13T00:18:37.859Z,0.40
2023-04-13T00:21:04.700Z,0.30
2023-04-13T00:23:31.945Z,0.40
2023-04-13T00:26:03.946Z,0.43
2023-04-13T00:28:30.706Z,0.30
2023-04-13T00:30:57.370Z,0.60
2023-04-13T00:33:24.159Z,0.33
2023-04-13T00:35:51.635Z,0.30
2023-04-13T00:38:18.349Z,0.30
2023-04-13T00:40:45.082Z,0.20
2023-04-13T00:43:11.784Z,0.23
2023-04-13T00:45:39.513Z,0.20
2023-04-13T00:48:09.749Z,0.27
2023-04-13T00:50:37.091Z,0.30
2023-04-13T00:53:08.165Z,0.47
2023-04-13T00:55:39.339Z,0.37
2023-04-13T00:58:06.241Z,0.30
2023-04-13T01:00:32.986Z,0.30
2023-04-13T01:03:02.367Z,0.33
2023-04-13T01:05:37.545Z,0.30
2023-04-13T01:08:22.210Z,0.37
2023-04-13T01:11:07.106Z,0.40
2023-04-13T01:13:55.844Z,0.30
2023-04-13T01:16:28.134Z,0.70
2023-04-13T01:18:55.870Z,0.30
2023-04-13T01:21:26.325Z,0.40
2023-04-13T01:24:32.289Z,0.30
2023-04-13T01:27:07.947Z,0.40
2023-04-13T01:29:36.300Z,0.43
2023-04-13T01:32:03.352Z,0.20
2023-04-13T01:34:30.661Z,0.37
2023-04-13T01:36:57.647Z,0.30
2023-04-13T01:39:32.967Z,0.20
2023-04-13T01:42:00.238Z,0.30
2023-04-13T01:44:31.460Z,0.20
2023-04-13T01:47:15.543Z,0.33
2023-04-13T01:49:48.798Z,0.53
2023-04-13T01:52:16.337Z,0.40
2023-04-13T01:54:45.781Z,0.20
2023-04-13T01:57:14.303Z,0.30
2023-04-13T01:59:40.966Z,0.33
2023-04-13T02:02:07.827Z,0.57
2023-04-13T02:04:34.812Z,0.30
2023-04-13T02:07:01.567Z,0.60
2023-04-13T02:09:28.306Z,0.30
2023-04-13T02:11:55.349Z,0.40
2023-04-13T02:14:22.204Z,0.43
2023-04-13T02:16:49.015Z,0.40
2023-04-13T02:19:15.678Z,0.30
2023-04-13T02:21:42.371Z,0.50
2023-04-13T02:24:09.338Z,0.40
2023-04-13T02:26:37.587Z,0.63
2023-04-13T02:29:04.279Z,0.50
2023-04-13T02:31:31.836Z,0.60
2023-04-13T02:33:59.363Z,0.80
2023-04-13T02:36:27.662Z,0.50
2023-04-13T02:38:54.557Z,0.40
2023-04-13T02:41:23.095Z,0.30
2023-04-13T02:43:50.625Z,0.47
2023-04-13T02:46:17.343Z,0.70
2023-04-13T02:48:44.094Z,0.50
2023-04-13T02:51:11.499Z,0.50
2023-04-13T02:53:38.171Z,0.40
2023-04-13T02:56:06.280Z,0.50
2023-04-13T02:58:32.922Z,0.63
2023-04-13T03:00:59.668Z,0.53
2023-04-13T03:03:26.413Z,0.60
2023-04-13T03:05:53.086Z,0.60
2023-04-13T03:08:19.663Z,0.40
2023-04-13T03:10:46.476Z,0.63
2023-04-13T03:13:13.084Z,0.53
2023-04-13T03:15:41.125Z,0.50
2023-04-13T03:18:07.784Z,0.40
2023-04-13T03:20:34.807Z,0.47
2023-04-13T03:23:01.951Z,0.50
2023-04-13T03:25:28.668Z,0.60
2023-04-13T03:27:56.231Z,0.50
2023-04-13T03:30:23.024Z,0.70
2023-04-13T03:32:49.834Z,0.67
2023-04-13T03:35:16.578Z,0.60
2023-04-13T03:37:44.694Z,0.60
2023-04-13T03:40:11.714Z,0.60
2023-04-13T03:42:38.746Z,0.50
2023-04-13T03:45:06.946Z,0.70
2023-04-13T03:47:33.864Z,0.70
2023-04-13T03:50:00.572Z,0.47
2023-04-13T03:52:28.495Z,0.50
2023-04-13T03:54:55.310Z,0.77
2023-04-13T03:57:26.593Z,0.50
2023-04-13T03:59:53.273Z,0.70
2023-04-13T04:02:20.048Z,0.80
2023-04-13T04:04:46.797Z,0.53
2023-04-13T04:07:13.724Z,0.70
2023-04-13T04:09:41.645Z,0.60
2023-04-13T04:12:08.254Z,0.70
2023-04-13T04:14:34.897Z,0.60
2023-04-13T04:17:01.530Z,0.87
2023-04-13T04:19:28.186Z,0.70
2023-04-13T04:21:57.683Z,1.20
2023-04-13T04:24:27.402Z,1.40
2023-04-13T04:26:55.623Z,1.30
2023-04-13T04:29:22.467Z,1.37
2023-04-13T04:31:53.472Z,1.40
2023-04-13T04:34:20.565Z,1.30
2023-04-13T04:36:50.472Z,1.20
2023-04-13T04:39:22.134Z,1.10
2023-04-13T04:42:02.777Z,0.70
2023-04-13T04:44:32.739Z,0.90
2023-04-13T04:47:00.153Z,0.60
2023-04-13T04:49:28.693Z,0.80
2023-04-13T04:51:55.886Z,0.77
2023-04-13T04:54:22.934Z,0.70
2023-04-13T04:56:51.193Z,0.70
2023-04-13T04:59:19.485Z,0.53
2023-04-13T05:01:46.379Z,0.80
2023-04-13T05:04:13.156Z,0.70
2023-04-13T05:06:41.478Z,0.90
2023-04-13T05:09:08.932Z,0.70
2023-04-13T05:11:36.425Z,0.80
2023-04-13T05:14:03.275Z,0.87
2023-04-13T05:16:30.749Z,0.70
2023-04-13T05:18:57.935Z,0.60
2023-04-13T05:21:24.883Z,0.90
2023-04-13T05:23:51.849Z,0.60
2023-04-13T05:26:20.338Z,0.70
2023-04-13T05:28:46.995Z,0.47
2023-04-13T05:31:14.195Z,0.70
2023-04-13T05:33:40.822Z,0.63
2023-04-13T05:36:08.189Z,0.67
2023-04-13T05:38:34.882Z,0.90
2023-04-13T05:41:03.061Z,1.00
2023-04-13T05:43:29.803Z,0.70
2023-04-13T05:45:56.690Z,1.07
2023-04-13T05:48:23.298Z,0.93
2023-04-13T05:50:50.066Z,1.00
2023-04-13T05:53:16.699Z,1.17
2023-04-13T05:55:45.572Z,1.00
2023-04-13T05:58:13.447Z,0.83
2023-04-13T06:00:40.111Z,1.33
2023-04-13T06:03:07.996Z,1.20
2023-04-13T06:05:38.835Z,0.77
2023-04-13T06:08:05.503Z,1.03
2023-04-13T06:10:32.164Z,0.67
2023-04-13T06:12:59.135Z,0.90
2023-04-13T06:15:26.094Z,0.70
2023-04-13T06:17:53.428Z,0.80
2023-04-13T06:20:21.232Z,0.67
2023-04-13T06:22:48.055Z,0.93
2023-04-13T06:25:14.937Z,0.80
2023-04-13T06:27:43.349Z,0.60
2023-04-13T06:30:10.576Z,0.50
2023-04-13T06:32:37.188Z,0.53
2023-04-13T06:35:05.945Z,1.00
2023-04-13T06:37:35.604Z,0.50
2023-04-13T06:40:23.156Z,0.70
2023-04-13T06:42:49.868Z,1.23
2023-04-13T06:45:16.885Z,0.80
2023-04-13T06:47:43.623Z,0.50
2023-04-13T06:50:13.863Z,0.60
2023-04-13T06:52:43.094Z,0.70
2023-04-13T06:55:09.821Z,0.70
2023-04-13T06:57:36.491Z,0.80
2023-04-13T07:00:12.633Z,0.60
2023-04-13T07:02:49.299Z,0.80
2023-04-13T07:05:16.522Z,0.70
2023-04-13T07:07:43.287Z,0.80
2023-04-13T07:10:10.158Z,0.70
2023-04-13T07:12:36.820Z,0.70
2023-04-13T07:15:03.669Z,0.73
2023-04-13T07:17:30.435Z,0.60
2023-04-13T07:19:57.179Z,0.60
2023-04-13T07:22:23.845Z,0.70
2023-04-13T07:24:50.490Z,0.90
2023-04-13T07:27:17.165Z,0.63
2023-04-13T07:29:43.809Z,0.50
2023-04-13T07:32:10.508Z,0.60
2023-04-13T07:34:37.968Z,0.60
2023-04-13T07:37:04.654Z,0.50
2023-04-13T07:39:32.386Z,0.70
2023-04-13T07:41:59.326Z,0.60
2023-04-13T07:44:27.073Z,0.70
2023-04-13T07:46:56.208Z,0.70
2023-04-13T07:49:23.379Z,0.60
2023-04-13T07:51:53.127Z,0.60
2023-04-13T07:54:19.759Z,0.67
2023-04-13T07:56:46.420Z,0.63
2023-04-13T07:59:13.953Z,0.50
2023-04-13T08:01:40.672Z,0.77
2023-04-13T08:04:07.575Z,0.77
2023-04-13T08:06:34.882Z,0.70
2023-04-13T08:09:03.085Z,0.70
2023-04-13T08:11:29.857Z,0.97
2023-04-13T08:13:56.506Z,1.07
2023-04-13T08:16:23.201Z,0.93
2023-04-13T08:18:49.873Z,0.70
2023-04-13T08:21:16.620Z,0.80
2023-04-13T08:23:43.365Z,0.97
2023-04-13T08:26:18.284Z,1.10
2023-04-13T08:28:45.185Z,1.20
2023-04-13T08:31:12.360Z,0.80
2023-04-13T08:33:39.139Z,0.90
2023-04-13T08:36:06.421Z,1.17
2023-04-13T08:38:35.590Z,0.70
2023-04-13T08:41:03.737Z,0.73
2023-04-13T08:43:35.430Z,0.70
2023-04-13T08:46:06.004Z,1.13
2023-04-13T08:48:46.192Z,0.90
2023-04-13T08:51:18.074Z,1.10
2023-04-13T08:53:44.724Z,0.90
2023-04-13T08:56:14.931Z,0.83
2023-04-13T08:58:43.976Z,0.83
2023-04-13T09:01:14.032Z,0.70
2023-04-13T09:03:54.289Z,0.80
2023-04-13T09:06:28.745Z,0.77
2023-04-13T09:08:56.972Z,0.90
2023-04-13T09:11:24.049Z,1.40
2023-04-13T09:13:54.270Z,1.10
2023-04-13T09:16:20.982Z,1.00
2023-04-13T09:18:54.285Z,1.33
2023-04-13T09:21:21.569Z,1.07
2023-04-13T09:23:58.828Z,1.03
2023-04-13T09:26:26.168Z,1.00
2023-04-13T09:28:56.318Z,1.20
2023-04-13T09:31:23.354Z,0.80
2023-04-13T09:33:52.416Z,1.20
2023-04-13T09:36:22.642Z,2.10
2023-04-13T09:38:55.092Z,1.17
2023-04-13T09:41:52.667Z,0.83
2023-04-13T09:44:20.922Z,1.03
2023-04-13T09:46:59.005Z,0.90
2023-04-13T09:49:26.181Z,1.30
2023-04-13T09:51:54.729Z,1.13
2023-04-13T09:54:22.750Z,1.13
2023-04-13T09:56:57.770Z,1.00
2023-04-13T09:59:24.720Z,1.10
2023-04-13T10:01:55.198Z,0.97
2023-04-13T10:04:23.041Z,1.00
2023-04-13T10:06:50.033Z,1.10
2023-04-13T10:09:16.794Z,0.93
2023-04-13T10:11:49.958Z,1.30
2023-04-13T10:14:22.905Z,1.20
2023-04-13T10:17:23.588Z,1.53
2023-04-13T10:19:55.302Z,1.30
2023-04-13T10:22:23.959Z,1.03
2023-04-13T10:24:52.911Z,0.80
2023-04-13T10:27:22.409Z,1.30
2023-04-13T10:29:49.933Z,1.27
2023-04-13T10:32:24.448Z,1.00
2023-04-13T10:34:52.860Z,1.30
2023-04-13T10:37:22.985Z,1.10
2023-04-13T10:40:00.810Z,0.97
2023-04-13T10:42:28.032Z,1.20
2023-04-13T10:44:55.243Z,1.07
2023-04-13T10:47:22.139Z,1.20
2023-04-13T10:49:50.456Z,0.87
2023-04-13T10:52:17.446Z,0.83
2023-04-13T10:54:44.992Z,1.10
2023-04-13T10:57:12.637Z,0.80
2023-04-13T10:59:53.624Z,0.80
2023-04-13T11:02:26.161Z,0.70
2023-04-13T11:04:53.519Z,0.93
2023-04-13T11:07:26.610Z,1.07
2023-04-13T11:10:06.126Z,1.10
2023-04-13T11:12:33.216Z,1.00
2023-04-13T11:15:00.601Z,1.00
2023-04-13T11:17:27.549Z,1.20
2023-04-13T11:19:56.008Z,1.20
2023-04-13T11:22:25.547Z,1.00
2023-04-13T11:24:52.778Z,1.10
2023-04-13T11:27:23.951Z,0.90
2023-04-13T11:30:05.176Z,1.10
2023-04-13T11:32:36.320Z,0.87
2023-04-13T11:35:10.314Z,0.80
2023-04-13T11:37:39.246Z,1.00
2023-04-13T11:40:10.565Z,0.70
2023-04-13T11:42:42.800Z,1.20
2023-04-13T11:45:10.459Z,1.50
2023-04-13T11:47:37.363Z,1.17
2023-04-13T11:50:05.356Z,1.20
2023-04-13T11:52:33.553Z,0.83
2023-04-13T11:55:14.922Z,0.83
2023-04-13T11:57:48.738Z,1.23
2023-04-13T12:00:23.982Z,1.43
2023-04-13T12:03:01.664Z,1.50
2023-04-13T12:05:32.515Z,1.23
2023-04-13T12:08:02.606Z,1.20
2023-04-13T12:13:16.985Z,1.43
2023-04-13T12:16:06.030Z,0.80
2023-04-13T12:18:57.832Z,1.47
2023-04-13T12:21:26.401Z,0.87
2023-04-13T12:24:00.378Z,1.17
2023-04-13T12:27:16.201Z,1.17
2023-04-13T12:29:22.561Z,1.07
2023-04-13T12:31:49.249Z,1.47
2023-04-13T12:34:16.037Z,1.83
2023-04-13T12:36:42.614Z,1.03
2023-04-13T12:39:09.415Z,0.80
2023-04-13T12:41:36.091Z,1.27
2023-04-13T12:44:02.718Z,0.93
2023-04-13T12:46:29.658Z,0.83
2023-04-13T12:48:56.565Z,1.50
2023-04-13T12:51:23.235Z,1.10
2023-04-13T12:53:49.890Z,1.10
2023-04-13T12:56:16.534Z,1.13
2023-04-13T12:58:43.219Z,1.63
2023-04-13T13:01:10.211Z,1.10
2023-04-13T13:03:37.325Z,1.40
2023-04-13T13:06:08.177Z,1.37
2023-04-13T13:08:36.944Z,1.33
2023-04-13T13:11:08.304Z,1.40
2023-04-13T13:13:35.073Z,1.10
2023-04-13T13:16:01.853Z,1.20
2023-04-13T13:18:38.982Z,1.20
2023-04-13T13:21:13.529Z,1.30
2023-04-13T13:23:40.485Z,1.70
2023-04-13T13:28:40.330Z,1.30
2023-04-13T13:31:08.370Z,1.20
2023-04-13T13:33:35.048Z,1.20
2023-04-13T13:36:02.464Z,1.73
2023-04-13T13:38:29.646Z,1.13
2023-04-13T13:40:56.350Z,1.27
2023-04-13T13:43:23.096Z,1.23
2023-04-13T13:45:49.761Z,0.93
2023-04-13T13:48:16.542Z,1.10
2023-04-13T13:50:43.471Z,0.97
2023-04-13T13:53:10.164Z,1.10
2023-04-13T13:55:36.789Z,0.90
2023-04-13T13:58:03.443Z,0.77
2023-04-13T14:00:30.149Z,0.80
2023-04-13T14:02:57.089Z,0.63
2023-04-13T14:05:23.958Z,1.07
2023-04-13T14:07:51.261Z,1.00
2023-04-13T14:10:17.994Z,1.00
2023-04-13T14:12:49.638Z,0.70
2023-04-13T14:15:17.511Z,1.00
2023-04-13T14:17:48.378Z,0.80
2023-04-13T14:20:22.454Z,1.20
2023-04-13T14:22:51.362Z,0.90
2023-04-13T14:25:17.994Z,0.77
2023-04-13T14:27:44.699Z,1.00
2023-04-13T14:30:11.918Z,0.70
2023-04-13T14:32:38.557Z,0.80
2023-04-13T14:35:05.530Z,0.77
2023-04-13T14:37:32.241Z,1.00
2023-04-13T14:39:59.026Z,0.87
2023-04-13T14:42:29.977Z,0.77
2023-04-13T14:44:58.032Z,0.80
2023-04-13T14:47:24.782Z,0.73
2023-04-13T14:49:52.093Z,0.70
2023-04-13T14:52:18.992Z,1.10
2023-04-13T14:54:45.679Z,0.90
2023-04-13T14:57:12.443Z,0.90
2023-04-13T14:59:39.050Z,0.80
2023-04-13T15:02:06.576Z,0.97
2023-04-13T15:04:33.482Z,1.03
2023-04-13T15:07:02.892Z,1.10
2023-04-13T15:09:29.838Z,0.80
2023-04-13T15:11:56.510Z,1.20
2023-04-13T15:14:23.136Z,1.27
2023-04-13T15:16:49.841Z,1.40
2023-04-13T15:19:16.543Z,1.00
2023-04-13T15:21:43.186Z,0.97
2023-04-13T15:24:12.843Z,1.10
2023-04-13T15:26:41.526Z,0.87
2023-04-13T15:29:08.891Z,1.10
2023-04-13T15:31:37.804Z,0.90
2023-04-13T15:34:06.125Z,1.13
2023-04-13T15:36:32.746Z,1.27
2023-04-13T15:39:00.853Z,1.00
2023-04-13T15:41:27.784Z,0.70
2023-04-13T15:43:56.356Z,0.90
2023-04-13T15:46:23.091Z,0.80
2023-04-13T15:48:50.452Z,1.20
2023-04-13T15:51:17.229Z,1.23
2023-04-13T15:53:43.929Z,0.93
2023-04-13T15:56:10.544Z,1.20
2023-04-13T15:58:37.545Z,1.03
2023-04-13T16:01:07.444Z,1.60
2023-04-13T16:03:35.112Z,1.17
2023-04-13T16:06:02.792Z,1.50
2023-04-13T16:08:29.621Z,1.00
2023-04-13T16:10:59.752Z,2.00
2023-04-13T16:13:34.684Z,1.40
2023-04-13T16:16:08.113Z,1.53
2023-04-13T16:18:35.728Z,1.30
2023-04-13T16:21:03.640Z,1.80
2023-04-13T16:23:33.727Z,1.50
2023-04-13T16:26:04.712Z,1.40
2023-04-13T16:28:31.741Z,1.23
2023-04-13T16:30:58.923Z,1.43
2023-04-13T16:33:25.642Z,1.10
2023-04-13T16:35:52.671Z,0.90
2023-04-13T16:38:19.353Z,1.47
2023-04-13T16:40:46.152Z,0.90
2023-04-13T16:43:13.009Z,0.97
2023-04-13T16:45:40.097Z,1.33
2023-04-13T16:48:06.806Z,1.03
2023-04-13T16:50:33.495Z,1.40
2023-04-13T16:53:00.144Z,1.67
2023-04-13T16:55:30.565Z,1.70
2023-04-13T16:57:57.405Z,1.17
2023-04-13T17:00:24.107Z,1.20
2023-04-13T17:02:50.852Z,1.30
2023-04-13T17:05:17.782Z,1.37
2023-04-13T17:07:46.734Z,1.33
2023-04-13T17:10:14.355Z,1.13
2023-04-13T17:12:41.282Z,1.00
2023-04-13T17:15:09.456Z,1.00
2023-04-13T17:17:37.909Z,0.90
2023-04-13T17:20:06.108Z,1.00
2023-04-13T17:22:32.974Z,1.23
2023-04-13T17:25:00.938Z,1.40
2023-04-13T17:27:27.746Z,1.30
2023-04-13T17:29:54.774Z,1.43
2023-04-13T17:32:22.142Z,1.17
2023-04-13T17:34:49.933Z,1.47
2023-04-13T17:37:17.497Z,2.10
2023-04-13T17:39:47.463Z,1.40
2023-04-13T17:42:15.090Z,1.10
2023-04-13T17:44:42.375Z,1.90
2023-04-13T17:47:09.296Z,1.80
2023-04-13T17:49:36.406Z,1.67
2023-04-13T17:52:03.070Z,1.80
2023-04-13T17:54:29.908Z,1.33
2023-04-13T17:56:56.678Z,1.30
2023-04-13T17:59:23.525Z,1.50
2023-04-13T18:01:52.237Z,1.60
2023-04-13T18:04:19.252Z,1.37
2023-04-13T18:06:46.024Z,1.23
2023-04-13T18:09:12.811Z,1.10
2023-04-13T18:11:39.822Z,1.67
2023-04-13T18:14:08.804Z,1.30
2023-04-13T18:16:35.895Z,1.40
2023-04-13T18:19:02.785Z,1.33
2023-04-13T18:21:29.513Z,1.73
2023-04-13T18:23:56.187Z,1.43
2023-04-13T18:26:28.316Z,1.50
2023-04-13T18:28:55.273Z,1.73
2023-04-13T18:31:21.984Z,1.57
2023-04-13T18:33:48.688Z,1.63
2023-04-13T18:36:16.742Z,1.90
2023-04-13T18:38:44.219Z,2.00
2023-04-13T18:41:11.226Z,2.20
2023-04-13T18:43:38.432Z,2.00
2023-04-13T18:46:05.768Z,2.10
2023-04-13T18:48:32.494Z,2.20
2023-04-13T18:51:00.426Z,2.10
2023-04-13T18:53:28.693Z,1.80
2023-04-13T18:55:57.503Z,2.00
2023-04-13T18:58:24.132Z,1.90
2023-04-13T19:00:50.794Z,1.90
2023-04-13T19:03:17.545Z,2.20
2023-04-13T19:05:44.286Z,2.27
2023-04-13T19:08:13.275Z,1.80
2023-04-13T19:10:39.991Z,1.90
2023-04-13T19:13:06.705Z,2.10
2023-04-13T19:15:33.693Z,2.53
2023-04-13T19:18:02.147Z,2.40
2023-04-13T19:20:28.939Z,2.00
2023-04-13T19:22:55.682Z,1.93
2023-04-13T19:25:25.601Z,2.03
2023-04-13T19:27:52.292Z,1.90
2023-04-13T19:30:19.604Z,1.87
2023-04-13T19:32:48.047Z,2.10
2023-04-13T19:35:14.939Z,1.93
2023-04-13T19:37:42.072Z,2.13
2023-04-13T19:40:09.877Z,2.10
2023-04-13T19:42:37.389Z,2.40
2023-04-13T19:45:04.540Z,2.10
2023-04-13T19:47:31.258Z,2.10
2023-04-13T19:49:57.973Z,2.47
2023-04-13T19:52:25.306Z,2.20
2023-04-13T19:54:52.236Z,2.40
2023-04-13T19:57:19.077Z,2.00
2023-04-13T19:59:45.819Z,2.10
2023-04-13T20:02:12.751Z,2.10
2023-04-13T20:04:40.093Z,1.80
2023-04-13T20:07:07.218Z,2.10
2023-04-13T20:09:34.044Z,2.23
2023-04-13T20:12:00.798Z,2.00
2023-04-13T20:14:27.585Z,1.90
2023-04-13T20:16:54.205Z,1.73
2023-04-13T20:19:22.869Z,1.50
2023-04-13T20:21:51.238Z,1.17
2023-04-13T20:24:18.585Z,1.00
2023-04-13T20:26:45.536Z,1.60
2023-04-13T20:29:12.516Z,1.17
2023-04-13T20:31:40.552Z,0.90
2023-04-13T20:34:09.528Z,1.13
2023-04-13T20:36:36.371Z,0.93
2023-04-13T20:39:03.175Z,1.00
2023-04-13T20:41:31.759Z,1.07
2023-04-13T20:43:59.634Z,0.73
2023-04-13T20:46:33.837Z,0.87
2023-04-13T20:49:02.579Z,1.30
2023-04-13T20:51:32.946Z,1.20
2023-04-13T20:54:01.660Z,0.90
2023-04-13T20:56:29.796Z,0.80
2023-04-13T20:58:57.787Z,1.47
2023-04-13T21:01:25.260Z,1.00
2023-04-13T21:03:52.792Z,0.90
2023-04-13T21:06:19.855Z,1.20
2023-04-13T21:08:46.594Z,0.97
2023-04-13T21:11:13.279Z,1.00
2023-04-13T21:13:40.019Z,1.00
2023-04-13T21:16:08.480Z,0.90
2023-04-13T21:18:35.322Z,0.93
2023-04-13T21:21:01.967Z,0.83
2023-04-13T21:23:28.731Z,0.90
2023-04-13T21:25:55.722Z,0.80
2023-04-13T21:28:22.445Z,0.87
2023-04-13T21:30:49.132Z,0.80
2023-04-13T21:33:16.171Z,0.90
2023-04-13T21:35:42.923Z,1.10
2023-04-13T21:38:09.575Z,1.23
2023-04-13T21:40:36.267Z,1.10
2023-04-13T21:43:03.438Z,0.87
2023-04-13T21:45:30.299Z,1.00
2023-04-13T21:47:57.110Z,1.07
2023-04-13T21:50:24.356Z,0.90
2023-04-13T21:52:51.027Z,1.00
2023-04-13T21:55:18.134Z,1.40
2023-04-13T21:57:46.072Z,1.10
2023-04-13T22:00:14.440Z,1.00
2023-04-13T22:02:56.891Z,1.27
2023-04-13T22:05:23.703Z,1.10
2023-04-13T22:07:50.317Z,1.10
2023-04-13T22:10:16.971Z,1.37
2023-04-13T22:12:43.709Z,1.10
2023-04-13T22:15:11.711Z,1.30
2023-04-13T22:17:38.497Z,1.00
2023-04-13T22:20:05.876Z,1.00
2023-04-13T22:22:32.511Z,1.13
2023-04-13T22:24:59.094Z,1.13
2023-04-13T22:27:26.171Z,1.20
2023-04-13T22:29:54.698Z,1.20
2023-04-13T22:32:22.211Z,1.30
2023-04-13T22:34:49.670Z,1.27
2023-04-13T22:37:17.661Z,1.30
2023-04-13T22:39:44.526Z,1.10
2023-04-13T22:42:11.472Z,1.00
2023-04-13T22:44:38.160Z,1.13
2023-04-13T22:47:04.893Z,1.10
2023-04-13T22:49:31.611Z,1.17
2023-04-13T22:52:00.133Z,1.00
2023-04-13T22:54:26.813Z,1.27
2023-04-13T22:56:53.740Z,1.33
2023-04-13T22:59:20.394Z,1.00
2023-04-13T23:01:47.114Z,1.20
2023-04-13T23:04:16.096Z,1.20
2023-04-13T23:06:44.153Z,1.30
2023-04-13T23:09:10.871Z,1.10
2023-04-13T23:11:37.831Z,1.20
2023-04-13T23:14:06.517Z,1.17
2023-04-13T23:16:33.900Z,1.07
2023-04-13T23:19:00.862Z,1.00
2023-04-13T23:21:28.915Z,1.30
2023-04-13T23:23:56.064Z,1.00
2023-04-13T23:26:22.778Z,1.27
2023-04-13T23:28:49.458Z,1.30
2023-04-13T23:31:16.174Z,1.03
2023-04-13T23:33:43.009Z,1.40
2023-04-13T23:36:10.248Z,1.13
2023-04-13T23:38:37.004Z,1.30
2023-04-13T23:41:03.768Z,1.20
2023-04-13T23:43:30.420Z,1.20
2023-04-13T23:45:58.685Z,1.43
2023-04-13T23:48:26.903Z,1.50
2023-04-13T23:50:53.701Z,1.40
2023-04-13T23:53:20.290Z,1.60
2023-04-13T23:55:47.173Z,1.43
2023-04-13T23:58:13.914Z,1.40
